Time;durP1;ratioP1;P1;durP2;ratioP2;P2;SDS_P1;SDS_P2;PMS_P1;PMS_P2;Temp;Humidity;BMP_temperature;BMP_pressure;BME280_temperature;BME280_humidity;BME280_pressure;Samples;Min_cycle;Max_cycle;Signal;HPM_P1;HPM_P2
2023/12/21 00:02:20;;;;;;;;;;;;;;;3.66;41.85;98167.47;5094323;28;19987;-66
2023/12/21 00:04:45;;;;;;;;;;;;;;;3.72;41.37;98149.91;5076947;28;20030;-65
2023/12/21 00:07:10;;;;;;;;;;;;;;;3.79;41.62;98142.72;5112805;28;19976;-68
2023/12/21 00:09:36;;;;;;;;;;;;;;;3.84;41.69;98133.13;5094377;28;19951;-67
2023/12/21 00:12:01;;;;;;;;;;;;;;;3.87;41.34;98126.59;5092000;28;20033;-67
2023/12/21 00:14:30;;;;;;;;;;;;;;;3.89;40.78;98124.53;5107260;28;19916;-67
2023/12/21 00:16:55;;;;;;;;;;;;;;;3.88;41.00;98130.88;5091206;28;19915;-65
2023/12/21 00:19:20;;;;;;;;;;;;;;;3.92;41.59;98129.44;5092070;28;19916;-65
2023/12/21 00:21:46;;;;;;;;;;;;;;;3.91;40.76;98130.47;5072410;28;20319;-65
2023/12/21 00:24:11;;;;;;;;;;;;;;;3.93;40.57;98131.06;5113076;28;19912;-65
2023/12/21 00:26:36;;;;;;;;;;;;;;;3.90;40.28;98128.84;5109022;28;19920;-66
2023/12/21 00:29:02;;;;;;;;;;;;;;;3.88;40.70;98128.22;5109131;28;19919;-65
2023/12/21 00:31:27;;;;;;;;;;;;;;;3.87;40.39;98129.25;5094210;28;19912;-65
2023/12/21 00:33:52;;;;;;;;;;;;;;;3.85;39.97;98136.63;5097949;28;20351;-65
2023/12/21 00:36:17;;;;;;;;;;;;;;;3.84;40.62;98148.25;5106864;28;19957;-65
2023/12/21 00:38:43;;;;;;;;;;;;;;;3.81;40.56;98159.28;5112421;28;19994;-65
2023/12/21 00:41:08;;;;;;;;;;;;;;;3.76;40.16;98167.88;5095021;28;19928;-66
2023/12/21 00:43:33;;;;;;;;;;;;;;;3.68;39.83;98168.09;5092193;28;20350;-67
2023/12/21 00:45:59;;;;;;;;;;;;;;;3.61;40.88;98168.09;5091156;28;19923;-66
2023/12/21 00:48:25;;;;;;;;;;;;;;;3.56;40.24;98169.72;5092041;28;19912;-68
2023/12/21 00:50:51;;;;;;;;;;;;;;;3.46;39.11;98162.19;5096604;28;19923;-68
2023/12/21 00:53:17;;;;;;;;;;;;;;;3.42;39.91;98163.63;5094509;28;19916;-68
2023/12/21 00:55:43;;;;;;;;;;;;;;;3.42;39.86;98155.66;5075357;28;19922;-68
2023/12/21 00:58:08;;;;;;;;;;;;;;;3.37;40.47;98148.28;5092003;28;19916;-68
2023/12/21 01:00:34;;;;;;;;;;;;;;;3.40;39.53;98131.16;5093090;28;19912;-68
2023/12/21 01:02:59;;;;;;;;;;;;;;;3.42;39.79;98110.56;5069173;28;19922;-68
2023/12/21 01:05:24;;;;;;;;;;;;;;;3.41;39.23;98106.25;5094857;28;20002;-68
2023/12/21 01:07:50;;;;;;;;;;;;;;;3.40;39.16;98101.97;5096820;28;20387;-68
2023/12/21 01:10:15;;;;;;;;;;;;;;;3.41;39.10;98101.75;5096230;28;20285;-68
2023/12/21 01:12:40;;;;;;;;;;;;;;;3.42;39.22;98097.28;5095832;28;19924;-68
2023/12/21 01:15:07;;;;;;;;;;;;;;;3.47;39.63;98097.47;5096471;28;20329;-68
2023/12/21 01:17:33;;;;;;;;;;;;;;;3.54;39.93;98100.13;5061417;28;19935;-68
2023/12/21 01:19:59;;;;;;;;;;;;;;;3.57;39.38;98089.09;5096257;28;19923;-68
2023/12/21 01:22:24;;;;;;;;;;;;;;;3.57;39.31;98076.66;5096493;28;19913;-68
2023/12/21 01:24:49;;;;;;;;;;;;;;;3.59;39.89;98063.97;5096435;28;19919;-68
2023/12/21 01:27:15;;;;;;;;;;;;;;;3.59;39.44;98039.28;5095904;28;19916;-68
2023/12/21 01:29:40;;;;;;;;;;;;;;;3.62;39.94;98030.88;5077904;28;19912;-68
2023/12/21 01:32:06;;;;;;;;;;;;;;;3.67;39.46;98025.78;5095999;28;20357;-68
2023/12/21 01:34:31;;;;;;;;;;;;;;;3.70;40.43;98025.38;5095710;28;19999;-68
2023/12/21 01:36:56;;;;;;;;;;;;;;;3.73;39.77;98013.50;5095690;28;19912;-68
2023/12/21 01:39:23;;;;;;;;;;;;;;;3.77;39.79;97996.13;5095939;28;19912;-68
2023/12/21 01:41:49;;;;;;;;;;;;;;;3.78;39.84;97990.63;5099792;28;20364;-67
2023/12/21 01:44:14;;;;;;;;;;;;;;;3.83;40.49;97966.91;5104141;28;19912;-68
2023/12/21 01:46:40;;;;;;;;;;;;;;;3.78;39.36;97948.13;5095503;28;20283;-68
2023/12/21 01:49:05;;;;;;;;;;;;;;;3.74;39.28;97954.09;5095186;28;19918;-68
2023/12/21 01:51:31;;;;;;;;;;;;;;;3.75;39.18;97955.72;5095327;28;19918;-68
2023/12/21 01:53:57;;;;;;;;;;;;;;;3.75;40.24;97951.25;5096741;28;19959;-67
2023/12/21 01:56:25;;;;;;;;;;;;;;;3.74;40.55;97938.97;5110137;28;19935;-67
2023/12/21 01:58:50;;;;;;;;;;;;;;;3.75;39.28;97942.44;5111999;28;20360;-68
2023/12/21 02:01:18;;;;;;;;;;;;;;;3.70;38.96;97932.47;5115184;28;20322;-68
2023/12/21 02:03:44;;;;;;;;;;;;;;;3.64;39.07;97926.16;5095288;28;20302;-67
2023/12/21 02:06:09;;;;;;;;;;;;;;;3.57;38.74;97922.72;5095119;28;19927;-67
2023/12/21 02:08:34;;;;;;;;;;;;;;;3.49;38.62;97915.84;5095055;28;19958;-67
2023/12/21 02:11:05;;;;;;;;;;;;;;;3.43;38.68;97914.00;5094818;28;19912;-67
2023/12/21 02:13:30;;;;;;;;;;;;;;;3.36;38.86;97918.53;5094967;28;19920;-67
2023/12/21 02:15:57;;;;;;;;;;;;;;;3.28;38.63;97908.97;5094435;28;19919;-67
2023/12/21 02:18:23;;;;;;;;;;;;;;;3.22;38.94;97895.75;5094769;28;19912;-67
2023/12/21 02:20:49;;;;;;;;;;;;;;;3.14;39.06;97885.34;5102078;28;19923;-67
2023/12/21 02:23:16;;;;;;;;;;;;;;;3.04;39.36;97872.53;5115056;28;19912;-68
2023/12/21 02:25:41;;;;;;;;;;;;;;;2.98;39.44;97855.63;5115329;28;19968;-68
2023/12/21 02:28:07;;;;;;;;;;;;;;;2.91;39.43;97844.25;5115486;28;19912;-68
2023/12/21 02:30:33;;;;;;;;;;;;;;;2.84;39.98;97849.56;5115273;28;20310;-68
2023/12/21 02:32:58;;;;;;;;;;;;;;;2.81;39.53;97852.63;5115135;28;19915;-68
2023/12/21 02:35:24;;;;;;;;;;;;;;;2.77;40.10;97850.59;5115106;28;19912;-68
2023/12/21 02:37:49;;;;;;;;;;;;;;;2.70;39.40;97832.06;5100126;28;19919;-68
2023/12/21 02:40:14;;;;;;;;;;;;;;;2.65;39.43;97821.28;5094382;28;20274;-68
2023/12/21 02:42:40;;;;;;;;;;;;;;;2.56;39.71;97819.88;5094299;28;19932;-68
2023/12/21 02:45:05;;;;;;;;;;;;;;;2.51;39.71;97810.72;5094187;28;20277;-68
2023/12/21 02:47:31;;;;;;;;;;;;;;;2.48;39.74;97799.72;5094412;28;19920;-68
2023/12/21 02:49:56;;;;;;;;;;;;;;;2.46;39.71;97791.97;5094222;28;19913;-68
2023/12/21 02:52:21;;;;;;;;;;;;;;;2.45;39.78;97784.25;5094345;28;19912;-68
2023/12/21 02:54:47;;;;;;;;;;;;;;;2.44;39.72;97774.69;5093545;28;19999;-68
2023/12/21 02:57:12;;;;;;;;;;;;;;;2.41;39.65;97767.13;5094172;28;20280;-68
2023/12/21 02:59:42;;;;;;;;;;;;;;;2.35;40.05;97763.50;5094384;28;20329;-68
2023/12/21 03:02:07;;;;;;;;;;;;;;;2.33;39.74;97760.25;5093807;28;19912;-68
2023/12/21 03:04:32;;;;;;;;;;;;;;;2.29;40.32;97745.78;5094164;28;20015;-68
2023/12/21 03:06:57;;;;;;;;;;;;;;;2.26;39.46;97746.19;5094222;28;19948;-68
2023/12/21 03:09:23;;;;;;;;;;;;;;;2.24;39.69;97742.94;5094190;28;20280;-68
2023/12/21 03:11:48;;;;;;;;;;;;;;;2.22;39.49;97735.22;5094120;28;19926;-67
2023/12/21 03:14:13;;;;;;;;;;;;;;;2.21;39.39;97724.81;5094106;28;19912;-67
2023/12/21 03:16:39;;;;;;;;;;;;;;;2.22;40.16;97705.28;5094213;28;19915;-67
2023/12/21 03:19:04;;;;;;;;;;;;;;;2.27;40.39;97692.22;5093846;28;19961;-68
2023/12/21 03:21:30;;;;;;;;;;;;;;;2.33;40.53;97696.69;5106479;28;20292;-68
2023/12/21 03:23:56;;;;;;;;;;;;;;;2.35;39.34;97685.88;5114237;28;20298;-68
2023/12/21 03:26:21;;;;;;;;;;;;;;;2.34;39.84;97674.50;5114084;28;19916;-68
2023/12/21 03:28:47;;;;;;;;;;;;;;;2.35;39.62;97662.84;5114162;28;19912;-68
2023/12/21 03:31:15;;;;;;;;;;;;;;;2.37;39.60;97647.56;5114087;28;20279;-68
2023/12/21 03:33:40;;;;;;;;;;;;;;;2.38;39.95;97637.78;5102667;28;20282;-68
2023/12/21 03:36:06;;;;;;;;;;;;;;;2.43;39.58;97628.19;5099396;28;19912;-68
2023/12/21 03:38:31;;;;;;;;;;;;;;;2.47;39.97;97620.63;5075459;28;19974;-68
2023/12/21 03:40:56;;;;;;;;;;;;;;;2.47;39.59;97616.16;5093365;28;20544;-68
2023/12/21 03:43:22;;;;;;;;;;;;;;;2.50;39.99;97607.78;5093763;28;19919;-68
2023/12/21 03:45:47;;;;;;;;;;;;;;;2.51;39.78;97606.75;5093649;28;20330;-68
2023/12/21 03:48:13;;;;;;;;;;;;;;;2.52;39.72;97602.25;5093311;28;19919;-68
2023/12/21 03:50:38;;;;;;;;;;;;;;;2.55;40.00;97590.44;5093394;28;19922;-68
2023/12/21 03:53:05;;;;;;;;;;;;;;;2.58;39.99;97576.75;5093350;28;20015;-68
2023/12/21 03:55:31;;;;;;;;;;;;;;;2.61;39.84;97565.75;5092963;28;19912;-68
2023/12/21 03:57:56;;;;;;;;;;;;;;;2.59;40.16;97555.34;5093153;28;19958;-68
2023/12/21 04:00:22;;;;;;;;;;;;;;;2.61;40.15;97547.19;5093588;28;19919;-68
2023/12/21 04:02:47;;;;;;;;;;;;;;;2.62;39.50;97551.47;5080073;28;19912;-68
2023/12/21 04:05:12;;;;;;;;;;;;;;;2.60;39.76;97546.41;5072965;28;19920;-68
2023/12/21 04:07:38;;;;;;;;;;;;;;;2.61;39.34;97533.94;5073357;28;19920;-68
2023/12/21 04:10:04;;;;;;;;;;;;;;;2.60;39.34;97535.81;5073485;28;19912;-68
2023/12/21 04:12:29;;;;;;;;;;;;;;;2.62;39.63;97522.31;5093830;28;19919;-68
2023/12/21 04:14:55;;;;;;;;;;;;;;;2.62;39.35;97524.97;5101583;28;20054;-67
2023/12/21 04:17:21;;;;;;;;;;;;;;;2.62;39.47;97519.66;5093579;28;19919;-68
2023/12/21 04:19:46;;;;;;;;;;;;;;;2.62;39.53;97514.38;5093142;28;19919;-68
2023/12/21 04:22:11;;;;;;;;;;;;;;;2.61;39.95;97497.66;5112493;28;19998;-68
2023/12/21 04:24:37;;;;;;;;;;;;;;;2.59;39.62;97490.97;5095239;28;20345;-68
2023/12/21 04:27:02;;;;;;;;;;;;;;;2.61;39.58;97475.66;5113882;28;19961;-68
2023/12/21 04:29:27;;;;;;;;;;;;;;;2.61;39.65;97476.47;5106178;28;20484;-68
2023/12/21 04:31:53;;;;;;;;;;;;;;;2.61;39.78;97465.88;5075060;28;19958;-68
2023/12/21 04:34:18;;;;;;;;;;;;;;;2.64;39.80;97454.06;5093108;28;19916;-68
2023/12/21 04:36:43;;;;;;;;;;;;;;;2.68;40.45;97450.75;5106482;28;19916;-68
2023/12/21 04:39:09;;;;;;;;;;;;;;;2.70;39.91;97442.56;5093222;28;19920;-68
2023/12/21 04:41:34;;;;;;;;;;;;;;;2.74;39.96;97427.06;5096714;28;19970;-68
2023/12/21 04:44:00;;;;;;;;;;;;;;;2.71;40.23;97407.91;5096725;28;20269;-68
2023/12/21 04:46:25;;;;;;;;;;;;;;;2.77;39.91;97402.75;5103381;28;19916;-68
2023/12/21 04:48:51;;;;;;;;;;;;;;;2.81;39.90;97385.41;5116969;28;19943;-68
2023/12/21 04:51:16;;;;;;;;;;;;;;;2.82;40.54;97371.13;5107428;28;19912;-68
2023/12/21 04:53:42;;;;;;;;;;;;;;;2.87;40.29;97363.31;5096452;28;20295;-68
2023/12/21 04:56:07;;;;;;;;;;;;;;;2.90;40.09;97350.44;5096685;28;19912;-67
2023/12/21 04:58:32;;;;;;;;;;;;;;;2.95;40.35;97338.34;5096833;28;19938;-67
2023/12/21 05:00:58;;;;;;;;;;;;;;;3.00;40.55;97319.94;5096525;28;20173;-68
2023/12/21 05:03:23;;;;;;;;;;;;;;;3.04;40.74;97313.97;5114148;28;19954;-68
2023/12/21 05:05:49;;;;;;;;;;;;;;;3.07;39.77;97300.28;5116784;28;19922;-68
2023/12/21 05:08:14;;;;;;;;;;;;;;;3.10;39.60;97293.69;5116744;28;20010;-68
2023/12/21 05:10:40;;;;;;;;;;;;;;;3.12;39.66;97286.38;5116760;28;19912;-68
2023/12/21 05:13:05;;;;;;;;;;;;;;;3.16;40.53;97268.13;5116415;28;20442;-67
2023/12/21 05:15:30;;;;;;;;;;;;;;;3.19;40.39;97249.94;5099417;28;19999;-68
2023/12/21 05:17:56;;;;;;;;;;;;;;;3.22;40.21;97244.19;5096195;28;19946;-68
2023/12/21 05:20:21;;;;;;;;;;;;;;;3.25;40.33;97229.66;5099851;28;19947;-68
2023/12/21 05:22:52;;;;;;;;;;;;;;;3.26;40.41;97223.34;5116541;28;19912;-67
2023/12/21 05:25:18;;;;;;;;;;;;;;;3.28;39.96;97215.97;5094178;28;19918;-68
2023/12/21 05:27:43;;;;;;;;;;;;;;;3.32;40.12;97200.41;5077772;28;19923;-68
2023/12/21 05:30:09;;;;;;;;;;;;;;;3.35;40.28;97192.81;5096063;28;20007;-68
2023/12/21 05:32:34;;;;;;;;;;;;;;;3.36;40.13;97175.88;5095801;28;19912;-68
2023/12/21 05:34:59;;;;;;;;;;;;;;;3.41;41.02;97169.84;5096288;28;19912;-67
2023/12/21 05:37:28;;;;;;;;;;;;;;;3.44;41.03;97159.59;5095806;28;19970;-67
2023/12/21 05:39:53;;;;;;;;;;;;;;;3.46;39.86;97149.56;5095680;28;19919;-68
2023/12/21 05:42:18;;;;;;;;;;;;;;;3.50;39.65;97126.03;5077191;28;19916;-67
2023/12/21 05:44:44;;;;;;;;;;;;;;;3.51;39.31;97110.91;5095666;28;20367;-68
2023/12/21 05:47:09;;;;;;;;;;;;;;;3.54;39.27;97110.47;5095248;28;19920;-67
2023/12/21 05:49:34;;;;;;;;;;;;;;;3.54;39.47;97098.00;5095285;28;19912;-68
2023/12/21 05:52:00;;;;;;;;;;;;;;;3.57;40.39;97086.13;5097744;28;19915;-68
2023/12/21 05:54:26;;;;;;;;;;;;;;;3.61;40.02;97071.38;5076426;28;19912;-68
2023/12/21 05:56:51;;;;;;;;;;;;;;;3.64;40.18;97066.41;5095135;28;19912;-68
2023/12/21 05:59:17;;;;;;;;;;;;;;;3.71;39.79;97063.59;5077805;28;19912;-68
2023/12/21 06:01:43;;;;;;;;;;;;;;;3.76;39.45;97052.31;5095116;28;20002;-67
2023/12/21 06:04:09;;;;;;;;;;;;;;;3.81;40.50;97036.50;5095446;28;19951;-68
2023/12/21 06:06:34;;;;;;;;;;;;;;;3.85;39.84;97027.00;5095323;28;20005;-68
2023/12/21 06:08:59;;;;;;;;;;;;;;;3.90;39.31;97007.72;5095117;28;20336;-68
2023/12/21 06:11:28;;;;;;;;;;;;;;;3.92;39.63;97002.97;5094992;28;19959;-68
2023/12/21 06:13:53;;;;;;;;;;;;;;;3.95;40.00;96994.53;5095379;28;19970;-68
2023/12/21 06:16:19;;;;;;;;;;;;;;;3.99;39.73;96980.56;5094755;28;19916;-68
2023/12/21 06:18:45;;;;;;;;;;;;;;;4.03;41.14;96970.25;5095245;28;19919;-68
2023/12/21 06:21:11;;;;;;;;;;;;;;;4.05;40.31;96961.03;5104209;28;19912;-67
2023/12/21 06:23:36;;;;;;;;;;;;;;;4.05;40.17;96950.41;5094767;28;20284;-67
2023/12/21 06:26:01;;;;;;;;;;;;;;;4.04;40.66;96938.16;5094626;28;19970;-67
2023/12/21 06:28:26;;;;;;;;;;;;;;;4.06;41.32;96928.09;5094911;28;19912;-68
2023/12/21 06:30:52;;;;;;;;;;;;;;;4.12;40.97;96922.88;5094557;28;20008;-68
2023/12/21 06:33:17;;;;;;;;;;;;;;;4.17;40.80;96920.34;5094789;28;19951;-68
2023/12/21 06:35:42;;;;;;;;;;;;;;;4.13;40.85;96903.28;5103720;28;19912;-68
2023/12/21 06:38:08;;;;;;;;;;;;;;;4.16;41.70;96882.34;5114972;28;19972;-68
2023/12/21 06:40:33;;;;;;;;;;;;;;;4.16;42.20;96877.03;5094791;28;20314;-68
2023/12/21 06:42:58;;;;;;;;;;;;;;;4.19;41.96;96857.16;5108657;28;19920;-68
2023/12/21 06:45:25;;;;;;;;;;;;;;;4.23;42.20;96845.81;5114957;28;19912;-68
2023/12/21 06:47:51;;;;;;;;;;;;;;;4.21;42.04;96850.53;5115022;28;19970;-68
2023/12/21 06:50:16;;;;;;;;;;;;;;;4.23;42.57;96839.69;5095377;28;19989;-68
2023/12/21 06:52:43;;;;;;;;;;;;;;;4.20;42.53;96833.03;5094370;28;20450;-68
2023/12/21 06:55:09;;;;;;;;;;;;;;;4.21;43.40;96829.31;5105795;28;19969;-68
2023/12/21 06:57:34;;;;;;;;;;;;;;;4.19;42.93;96819.97;5098937;28;19912;-68
2023/12/21 06:59:59;;;;;;;;;;;;;;;4.18;42.83;96805.91;5076029;28;19912;-68
2023/12/21 07:02:25;;;;;;;;;;;;;;;4.19;42.94;96785.47;5093865;28;20294;-68
2023/12/21 07:04:50;;;;;;;;;;;;;;;4.19;43.87;96782.81;5094355;28;20003;-68
2023/12/21 07:07:15;;;;;;;;;;;;;;;4.15;43.79;96769.22;5093912;28;19916;-68
2023/12/21 07:09:41;;;;;;;;;;;;;;;4.15;44.28;96755.13;5094291;28;19912;-68
2023/12/21 07:12:06;;;;;;;;;;;;;;;4.18;44.01;96746.66;5093946;28;19920;-68
2023/12/21 07:14:32;;;;;;;;;;;;;;;4.16;43.18;96732.84;5094329;28;19912;-68
2023/12/21 07:16:57;;;;;;;;;;;;;;;4.17;44.03;96729.13;5094109;28;20338;-68
2023/12/21 07:19:22;;;;;;;;;;;;;;;4.21;43.19;96711.66;5093916;28;19955;-68
2023/12/21 07:21:48;;;;;;;;;;;;;;;4.23;43.70;96705.06;5093641;28;20320;-68
2023/12/21 07:24:13;;;;;;;;;;;;;;;4.24;44.14;96704.00;5093844;28;19919;-68
2023/12/21 07:26:38;;;;;;;;;;;;;;;4.26;43.74;96691.28;5094197;28;19965;-68
2023/12/21 07:29:04;;;;;;;;;;;;;;;4.33;43.79;96688.47;5094018;28;19915;-68
2023/12/21 07:31:29;;;;;;;;;;;;;;;4.38;43.23;96687.69;5095917;28;20058;-68
2023/12/21 07:33:54;;;;;;;;;;;;;;;4.41;43.23;96685.34;5114422;28;19915;-68
2023/12/21 07:36:20;;;;;;;;;;;;;;;4.40;43.14;96685.59;5099209;28;19923;-68
2023/12/21 07:38:46;;;;;;;;;;;;;;;4.38;43.84;96669.94;5093969;28;19919;-68
2023/12/21 07:41:12;;;;;;;;;;;;;;;4.38;43.42;96664.63;5093672;28;19916;-68
2023/12/21 07:43:38;;;;;;;;;;;;;;;4.39;43.55;96658.25;5093755;28;20027;-68
2023/12/21 07:46:04;;;;;;;;;;;;;;;4.43;43.50;96648.72;5075551;28;19920;-68
2023/12/21 07:48:29;;;;;;;;;;;;;;;4.47;43.08;96639.19;5093878;28;20357;-67
2023/12/21 07:50:54;;;;;;;;;;;;;;;4.53;43.49;96636.59;5093389;28;19920;-67
2023/12/21 07:53:20;;;;;;;;;;;;;;;4.53;43.92;96620.66;5093738;28;19919;-68
2023/12/21 07:55:45;;;;;;;;;;;;;;;4.49;43.79;96616.91;5109132;28;20011;-67
2023/12/21 07:58:11;;;;;;;;;;;;;;;4.48;43.43;96605.47;5093530;28;19999;-68
2023/12/21 08:00:36;;;;;;;;;;;;;;;4.50;43.46;96610.56;5093409;28;19954;-67
2023/12/21 08:03:01;;;;;;;;;;;;;;;4.47;43.42;96596.69;5093440;28;19994;-66
2023/12/21 08:05:27;;;;;;;;;;;;;;;4.47;43.82;96583.41;5093266;28;19919;-67
2023/12/21 08:07:52;;;;;;;;;;;;;;;4.49;43.24;96571.75;5075179;28;19970;-67
2023/12/21 08:10:18;;;;;;;;;;;;;;;4.45;43.38;96556.28;5093579;28;19966;-68
2023/12/21 08:12:43;;;;;;;;;;;;;;;4.51;44.07;96559.81;5093167;28;20289;-67
2023/12/21 08:15:11;;;;;;;;;;;;;;;4.53;43.65;96548.94;5094961;28;19963;-67
2023/12/21 08:17:37;;;;;;;;;;;;;;;4.52;43.73;96556.09;5097215;28;19913;-68
2023/12/21 08:20:05;;;;;;;;;;;;;;;4.51;44.10;96533.22;5097165;28;20296;-67
2023/12/21 08:22:31;;;;;;;;;;;;;;;4.57;43.93;96524.28;5107465;28;19912;-67
2023/12/21 08:24:57;;;;;;;;;;;;;;;4.56;43.98;96511.25;5117824;28;19912;-67
2023/12/21 08:27:23;;;;;;;;;;;;;;;4.57;44.43;96508.34;5117718;28;19916;-67
2023/12/21 08:29:49;;;;;;;;;;;;;;;4.59;43.73;96505.44;5117711;28;19916;-67
2023/12/21 08:32:14;;;;;;;;;;;;;;;4.54;44.18;96502.72;5117948;28;19993;-67
2023/12/21 08:34:40;;;;;;;;;;;;;;;4.55;45.05;96485.72;5117275;28;20367;-67
2023/12/21 08:37:05;;;;;;;;;;;;;;;4.54;44.79;96476.16;5117634;28;19912;-67
2023/12/21 08:39:30;;;;;;;;;;;;;;;4.62;44.82;96473.84;5117380;28;20344;-67
2023/12/21 08:41:56;;;;;;;;;;;;;;;4.66;44.83;96458.16;5109161;28;19976;-67
2023/12/21 08:44:21;;;;;;;;;;;;;;;4.68;43.99;96447.28;5106067;28;20276;-67
2023/12/21 08:46:46;;;;;;;;;;;;;;;4.63;43.68;96440.09;5088602;28;19976;-67
2023/12/21 08:49:12;;;;;;;;;;;;;;;4.63;44.29;96432.13;5118518;28;20364;-67
2023/12/21 08:51:38;;;;;;;;;;;;;;;4.63;43.36;96426.81;5087717;28;19999;-67
2023/12/21 08:54:05;;;;;;;;;;;;;;;4.59;43.36;96415.88;5100700;28;20272;-67
2023/12/21 08:56:31;;;;;;;;;;;;;;;4.65;44.21;96406.88;5111517;28;19935;-67
2023/12/21 08:58:56;;;;;;;;;;;;;;;4.56;44.08;96389.03;5098337;28;19912;-67
2023/12/21 09:01:22;;;;;;;;;;;;;;;4.53;44.62;96387.69;5098623;28;19912;-67
2023/12/21 09:03:47;;;;;;;;;;;;;;;4.62;44.63;96369.41;5098299;28;19912;-67
2023/12/21 09:06:12;;;;;;;;;;;;;;;4.64;44.01;96369.94;5118607;28;19973;-67
